createdAt,value
2018-10-02T00:02:22.345Z,94890.36
2018-10-02T00:04:50.342Z,94893.22
2018-10-02T00:07:18.812Z,94894.44
2018-10-02T00:09:47.111Z,94889.59
2018-10-02T00:12:20.371Z,94882.38
2018-10-02T00:14:48.561Z,94882.71
2018-10-02T00:17:16.609Z,94887.06
2018-10-02T00:19:44.758Z,94883.33
2018-10-02T00:22:12.736Z,94881.36
2018-10-02T00:24:40.994Z,94894.13
2018-10-02T00:27:09.085Z,94892.31
2018-10-02T00:29:37.374Z,94889.94
2018-10-02T00:32:05.349Z,94886.31
2018-10-02T00:34:33.746Z,94885.27
2018-10-02T00:37:01.706Z,94885.88
2018-10-02T00:39:30.070Z,94894.89
2018-10-02T00:41:58.077Z,94891.73
2018-10-02T00:44:25.981Z,94879.25
2018-10-02T00:46:54.877Z,94885.39
2018-10-02T00:49:22.885Z,94888.72
2018-10-02T00:51:50.974Z,94887.95
2018-10-02T00:54:19.216Z,94883.59
2018-10-02T00:56:47.411Z,94891.12
2018-10-02T00:59:15.499Z,94890.97
2018-10-02T01:01:43.448Z,94891.44
2018-10-02T01:04:11.737Z,94895.03
2018-10-02T01:06:39.925Z,94887.95
2018-10-02T01:09:11.725Z,94892.03
2018-10-02T01:11:40.670Z,94883.45
2018-10-02T01:14:08.535Z,94884.19
2018-10-02T01:16:36.612Z,94887.50
2018-10-02T01:19:05.727Z,94885.10
2018-10-02T01:21:34.568Z,94888.55
2018-10-02T01:24:02.626Z,94894.71
2018-10-02T01:26:30.570Z,94898.65
2018-10-02T01:28:58.713Z,94892.62
2018-10-02T01:31:26.659Z,94896.06
2018-10-02T01:33:54.593Z,94897.22
2018-10-02T01:36:22.556Z,94885.69
2018-10-02T01:38:50.464Z,94887.50
2018-10-02T01:41:18.389Z,94893.22
2018-10-02T01:43:46.260Z,94887.19
2018-10-02T01:46:14.206Z,94895.27
2018-10-02T01:48:42.297Z,94894.23
2018-10-02T01:51:10.931Z,94897.97
2018-10-02T01:53:38.938Z,94895.73
2018-10-02T01:56:06.941Z,94888.98
2018-10-02T01:58:35.112Z,94884.63
2018-10-02T02:01:03.103Z,94884.59
2018-10-02T02:03:31.557Z,94889.85
2018-10-02T02:05:59.721Z,94883.55
2018-10-02T02:08:27.705Z,94890.25
2018-10-02T02:10:55.853Z,94886.92
2018-10-02T02:13:23.850Z,94888.99
2018-10-02T02:15:51.856Z,94897.50
2018-10-02T02:18:19.772Z,94896.30
2018-10-02T02:20:47.777Z,94899.56
2018-10-02T02:23:15.801Z,94895.68
2018-10-02T02:25:43.763Z,94907.45
2018-10-02T02:28:11.721Z,94901.94
2018-10-02T02:30:39.704Z,94900.59
2018-10-02T02:33:07.618Z,94900.61
2018-10-02T02:35:35.918Z,94900.68
2018-10-02T02:38:04.036Z,94902.82
2018-10-02T02:40:31.943Z,94900.41
2018-10-02T02:42:59.868Z,94904.28
2018-10-02T02:45:27.890Z,94903.55
2018-10-02T02:48:01.218Z,94906.31
2018-10-02T02:50:34.527Z,94910.50
2018-10-02T02:53:05.800Z,94901.53
2018-10-02T02:55:33.754Z,94911.09
2018-10-02T02:58:01.865Z,94916.78
2018-10-02T03:00:29.814Z,94924.95
2018-10-02T03:02:57.757Z,94931.14
2018-10-02T03:05:25.650Z,94931.91
2018-10-02T03:07:53.676Z,94931.17
2018-10-02T03:10:21.900Z,94937.41
2018-10-02T03:12:49.818Z,94941.33
2018-10-02T03:15:17.990Z,94943.88
2018-10-02T03:17:45.955Z,94935.78
2018-10-02T03:20:13.907Z,94927.31
2018-10-02T03:22:41.877Z,94932.63
2018-10-02T03:25:09.792Z,94946.03
2018-10-02T03:27:37.905Z,94939.83
2018-10-02T03:30:05.861Z,94943.84
2018-10-02T03:32:33.872Z,94948.15
2018-10-02T03:35:01.918Z,94943.58
2018-10-02T03:37:30.002Z,94949.75
2018-10-02T03:39:58.062Z,94936.25
2018-10-02T03:42:26.056Z,94937.77
2018-10-02T03:44:53.971Z,94938.30
2018-10-02T03:47:22.026Z,94948.25
2018-10-02T03:49:49.916Z,94944.20
2018-10-02T03:52:17.995Z,94945.16
2018-10-02T03:54:45.865Z,94942.34
2018-10-02T03:57:13.775Z,94950.19
2018-10-02T03:59:41.813Z,94953.86
2018-10-02T04:02:09.775Z,94955.64
2018-10-02T04:04:37.666Z,94952.42
2018-10-02T04:07:05.624Z,94945.83
2018-10-02T04:09:33.538Z,94948.20
2018-10-02T04:12:01.641Z,94952.19
2018-10-02T04:14:29.891Z,94960.58
2018-10-02T04:16:57.993Z,94955.67
2018-10-02T04:19:25.882Z,94952.58
2018-10-02T04:21:53.867Z,94955.13
2018-10-02T04:24:22.159Z,94953.64
2018-10-02T04:26:50.141Z,94956.71
2018-10-02T04:29:18.054Z,94956.56
2018-10-02T04:31:46.029Z,94963.45
2018-10-02T04:34:14.093Z,94965.25
2018-10-02T04:36:42.054Z,94962.02
2018-10-02T04:39:09.949Z,94963.13
2018-10-02T04:41:38.031Z,94967.72
2018-10-02T04:44:05.992Z,94971.38
2018-10-02T04:46:36.798Z,94970.70
2018-10-02T04:49:05.014Z,94966.48
2018-10-02T04:51:33.463Z,94973.52
2018-10-02T04:54:01.961Z,94977.69
2018-10-02T04:56:29.941Z,94985.44
2018-10-02T04:58:57.990Z,94998.91
2018-10-02T05:01:26.029Z,95002.47
2018-10-02T05:03:54.000Z,94999.09
2018-10-02T05:06:22.007Z,94998.89
2018-10-02T05:08:50.370Z,95004.48
2018-10-02T05:11:19.002Z,95003.37
2018-10-02T05:13:47.063Z,94994.86
2018-10-02T05:16:15.107Z,95004.78
2018-10-02T05:18:43.079Z,95009.59
2018-10-02T05:21:11.060Z,95018.23
2018-10-02T05:23:39.110Z,95024.26
2018-10-02T05:26:07.135Z,95034.66
2018-10-02T05:28:35.141Z,95031.30
2018-10-02T05:31:03.174Z,95042.33
2018-10-02T05:33:31.433Z,95049.38
2018-10-02T05:35:59.475Z,95054.06
2018-10-02T05:38:27.716Z,95047.21
2018-10-02T05:40:55.665Z,95056.85
2018-10-02T05:43:23.639Z,95044.03
2018-10-02T05:45:51.622Z,95039.78
2018-10-02T05:48:19.601Z,95041.89
2018-10-02T05:50:47.541Z,95049.03
2018-10-02T05:53:15.525Z,95055.25
2018-10-02T05:55:43.573Z,95061.02
2018-10-02T05:58:11.493Z,95058.92
2018-10-02T06:00:39.758Z,95064.19
2018-10-02T06:03:07.841Z,95067.95
2018-10-02T06:05:35.812Z,95066.78
2018-10-02T06:08:04.103Z,95068.70
2018-10-02T06:10:32.307Z,95072.36
2018-10-02T06:13:00.521Z,95070.73
2018-10-02T06:15:29.685Z,95072.04
2018-10-02T06:17:57.918Z,95077.42
2018-10-02T06:20:27.021Z,95076.58
2018-10-02T06:22:55.243Z,95083.80
2018-10-02T06:25:23.415Z,95075.02
2018-10-02T06:27:52.896Z,95082.88
2018-10-02T06:30:29.207Z,95076.05
2018-10-02T06:32:57.347Z,95092.28
2018-10-02T06:35:25.599Z,95089.19
2018-10-02T06:37:53.870Z,95091.59
2018-10-02T06:40:22.154Z,95100.78
2018-10-02T06:42:50.232Z,95104.88
2018-10-02T06:45:18.967Z,95099.74
2018-10-02T06:47:47.025Z,95097.48
2018-10-02T06:50:15.401Z,95100.36
2018-10-02T06:52:50.161Z,95098.52
2018-10-02T06:55:21.184Z,95099.69
2018-10-02T06:57:54.619Z,95104.59
2018-10-02T07:00:24.476Z,95107.42
2018-10-02T07:02:52.761Z,95105.61
2018-10-02T07:05:21.231Z,95116.94
2018-10-02T07:07:49.213Z,95110.51
2018-10-02T07:10:17.254Z,95115.01
2018-10-02T07:12:45.410Z,95114.25
2018-10-02T07:15:13.615Z,95117.15
2018-10-02T07:17:41.611Z,95128.71
2018-10-02T07:20:09.631Z,95134.12
2018-10-02T07:22:37.633Z,95135.09
2018-10-02T07:25:06.339Z,95140.92
2018-10-02T07:27:34.280Z,95143.00
2018-10-02T07:30:02.262Z,95152.41
2018-10-02T07:32:30.548Z,95155.75
2018-10-02T07:34:58.739Z,95163.00
2018-10-02T07:37:27.762Z,95161.09
2018-10-02T07:39:56.071Z,95145.64
2018-10-02T07:42:24.185Z,95159.89
2018-10-02T07:44:52.804Z,95154.00
2018-10-02T07:47:20.808Z,95160.81
2018-10-02T07:49:48.862Z,95170.63
2018-10-02T07:52:16.929Z,95173.21
2018-10-02T07:54:44.946Z,95172.50
2018-10-02T07:57:13.027Z,95173.42
2018-10-02T07:59:41.185Z,95177.73
2018-10-02T08:02:09.039Z,95173.50
2018-10-02T08:04:37.481Z,95168.75
2018-10-02T08:07:05.836Z,95161.33
2018-10-02T08:09:34.058Z,95162.11
2018-10-02T08:12:02.212Z,95159.66
2018-10-02T08:14:30.314Z,95164.80
2018-10-02T08:16:58.778Z,95172.36
2018-10-02T08:19:26.945Z,95167.51
2018-10-02T08:21:55.036Z,95169.74
2018-10-02T08:24:23.164Z,95165.17
2018-10-02T08:26:51.202Z,95172.36
2018-10-02T08:29:19.274Z,95177.25
2018-10-02T08:31:47.309Z,95177.28
2018-10-02T08:34:15.447Z,95175.72
2018-10-02T08:36:43.692Z,95169.63
2018-10-02T08:39:12.283Z,95164.75
2018-10-02T08:41:40.612Z,95168.27
2018-10-02T08:44:08.850Z,95171.95
2018-10-02T08:46:37.333Z,95175.56
2018-10-02T08:49:05.670Z,95178.67
2018-10-02T08:51:39.696Z,95180.11
2018-10-02T08:54:10.831Z,95172.11
2018-10-02T08:56:38.850Z,95171.80
2018-10-02T08:59:16.147Z,95177.45
2018-10-02T09:01:44.206Z,95167.12
2018-10-02T09:04:12.362Z,95173.52
2018-10-02T09:06:40.443Z,95180.66
2018-10-02T09:09:10.145Z,95173.28
2018-10-02T09:11:38.327Z,95177.50
2018-10-02T09:14:06.811Z,95175.39
2018-10-02T09:16:34.930Z,95169.61
2018-10-02T09:19:03.723Z,95159.47
2018-10-02T09:21:32.377Z,95173.20
2018-10-02T09:24:00.938Z,95162.59
2018-10-02T09:26:28.957Z,95161.73
2018-10-02T09:28:56.886Z,95152.89
2018-10-02T09:31:30.266Z,95159.48
2018-10-02T09:34:03.825Z,95162.88
2018-10-02T09:36:37.427Z,95160.52
2018-10-02T09:39:12.507Z,95155.58
2018-10-02T09:41:45.949Z,95155.36
2018-10-02T09:44:13.872Z,95150.95
2018-10-02T09:46:41.828Z,95153.48
2018-10-02T09:49:09.777Z,95155.67
2018-10-02T09:51:37.747Z,95153.91
2018-10-02T09:54:05.782Z,95150.77
2018-10-02T09:56:39.361Z,95146.53
2018-10-02T09:59:07.381Z,95137.08
2018-10-02T10:01:40.752Z,95131.80
2018-10-02T10:04:08.784Z,95127.75
2018-10-02T10:06:37.034Z,95122.72
2018-10-02T10:09:06.150Z,95117.91
2018-10-02T10:11:34.080Z,95121.96
2018-10-02T10:14:02.296Z,95120.55
2018-10-02T10:16:30.333Z,95114.67
2018-10-02T10:18:58.264Z,95119.77
2018-10-02T10:21:26.144Z,95112.19
2018-10-02T10:23:54.358Z,95101.41
2018-10-02T10:26:22.977Z,95092.70
2018-10-02T10:28:51.102Z,95096.53
2018-10-02T10:31:19.007Z,95090.92
2018-10-02T10:33:47.194Z,95089.45
2018-10-02T10:36:15.803Z,95076.59
2018-10-02T10:38:43.784Z,95082.31
2018-10-02T10:41:12.018Z,95075.11
2018-10-02T10:43:40.005Z,95072.44
2018-10-02T10:46:08.214Z,95072.02
2018-10-02T10:48:36.364Z,95072.53
2018-10-02T10:51:04.313Z,95062.47
2018-10-02T10:53:32.431Z,95066.57
2018-10-02T10:56:00.467Z,95050.38
2018-10-02T10:58:28.462Z,95064.00
2018-10-02T11:00:56.558Z,95061.82
2018-10-02T11:03:24.496Z,95064.75
2018-10-02T11:05:52.630Z,95062.93
2018-10-02T11:08:21.183Z,95048.56
2018-10-02T11:10:49.239Z,95049.63
2018-10-02T11:13:17.365Z,95041.92
2018-10-02T11:15:45.316Z,95043.90
2018-10-02T11:18:13.391Z,95048.73
2018-10-02T11:20:41.575Z,95044.41
2018-10-02T11:23:11.920Z,95049.44
2018-10-02T11:25:40.119Z,95046.45
2018-10-02T11:28:08.155Z,95045.89
2018-10-02T11:30:36.165Z,95047.88
2018-10-02T11:33:04.250Z,95048.45
2018-10-02T11:35:32.675Z,95045.70
2018-10-02T11:38:00.717Z,95044.66
2018-10-02T11:40:30.411Z,95040.45
2018-10-02T11:42:58.386Z,95036.31
2018-10-02T11:45:26.626Z,95024.34
2018-10-02T11:47:54.546Z,95026.55
2018-10-02T11:50:23.949Z,95023.30
2018-10-02T11:52:51.957Z,95033.15
2018-10-02T11:55:21.852Z,95034.77
2018-10-02T11:57:51.932Z,95036.35
2018-10-02T12:00:20.316Z,95036.24
2018-10-02T12:02:48.412Z,95024.82
2018-10-02T12:05:16.466Z,95034.52
2018-10-02T12:07:44.343Z,95026.85
2018-10-02T12:10:12.542Z,95023.94
2018-10-02T12:12:40.598Z,95020.75
2018-10-02T12:15:09.695Z,95025.63
2018-10-02T12:17:37.763Z,95025.17
2018-10-02T12:20:06.311Z,95023.54
2018-10-02T12:22:34.222Z,95014.84
2018-10-02T12:25:02.381Z,95027.91
2018-10-02T12:27:34.638Z,95022.55
2018-10-02T12:30:02.916Z,95023.90
2018-10-02T12:32:31.371Z,95019.11
2018-10-02T12:35:00.703Z,95022.36
2018-10-02T12:37:29.352Z,95014.61
2018-10-02T12:40:01.634Z,95016.89
2018-10-02T12:42:30.148Z,95010.42
2018-10-02T12:44:58.102Z,95018.35
2018-10-02T12:47:26.327Z,95016.02
2018-10-02T12:49:56.158Z,95023.05
2018-10-02T12:52:24.231Z,95021.02
2018-10-02T12:54:52.450Z,95014.31
2018-10-02T12:57:20.823Z,95014.64
2018-10-02T12:59:50.675Z,95012.61
2018-10-02T13:02:18.998Z,95014.23
2018-10-02T13:04:47.081Z,95009.81
2018-10-02T13:07:15.826Z,95014.70
2018-10-02T13:09:43.872Z,95006.92
2018-10-02T13:12:11.849Z,95002.16
2018-10-02T13:14:39.789Z,95005.47
2018-10-02T13:17:07.888Z,95007.69
2018-10-02T13:19:36.331Z,95006.06
2018-10-02T13:22:04.386Z,95010.08
2018-10-02T13:24:33.683Z,94998.39
2018-10-02T13:27:01.781Z,95002.48
2018-10-02T13:29:31.301Z,94999.53
2018-10-02T13:31:59.509Z,95004.16
2018-10-02T13:34:27.616Z,94999.20
2018-10-02T13:36:55.869Z,95001.84
2018-10-02T13:39:23.818Z,94996.31
2018-10-02T13:41:54.138Z,95000.55
2018-10-02T13:44:23.137Z,94995.25
2018-10-02T13:46:51.484Z,94997.70
2018-10-02T13:49:19.623Z,94996.45
2018-10-02T13:51:48.382Z,94992.48
2018-10-02T13:54:17.149Z,95000.25
2018-10-02T13:56:45.849Z,94996.43
2018-10-02T13:59:14.162Z,94995.68
2018-10-02T14:01:42.297Z,94990.17
2018-10-02T14:04:10.865Z,95001.84
2018-10-02T14:06:41.199Z,95007.46
2018-10-02T14:09:09.411Z,94997.61
2018-10-02T14:11:37.370Z,94996.84
2018-10-02T14:14:05.501Z,95004.28
2018-10-02T14:16:33.505Z,95001.94
2018-10-02T14:19:01.591Z,94998.98
2018-10-02T14:21:31.534Z,95003.98
2018-10-02T14:23:59.700Z,95002.70
2018-10-02T14:26:27.816Z,95005.42
2018-10-02T14:28:55.777Z,95009.05
2018-10-02T14:31:23.751Z,95010.77
2018-10-02T14:33:51.931Z,95009.28
2018-10-02T14:36:20.206Z,95007.13
2018-10-02T14:38:48.312Z,95011.39
2018-10-02T14:41:16.389Z,95008.41
2018-10-02T14:43:44.461Z,95004.62
2018-10-02T14:46:12.894Z,95004.62
2018-10-02T14:48:40.889Z,95005.42
2018-10-02T14:51:08.916Z,95009.14
2018-10-02T14:53:37.100Z,94933.80
2018-10-02T14:56:05.020Z,95002.02
2018-10-02T14:58:33.006Z,94998.41
2018-10-02T15:01:00.927Z,94995.13
2018-10-02T15:03:28.900Z,94995.10
2018-10-02T15:05:57.021Z,94995.23
2018-10-02T15:08:25.024Z,94998.94
2018-10-02T15:10:54.030Z,94998.62
2018-10-02T15:13:22.042Z,95007.61
2018-10-02T15:15:50.043Z,94992.44
2018-10-02T15:18:18.057Z,94998.91
2018-10-02T15:20:46.210Z,95013.00
2018-10-02T15:23:14.316Z,95010.89
2018-10-02T15:25:42.419Z,95011.62
2018-10-02T15:28:11.379Z,95009.94
2018-10-02T15:30:39.460Z,95007.47
2018-10-02T15:33:08.449Z,95009.65
2018-10-02T15:35:36.434Z,95016.77
2018-10-02T15:38:04.489Z,95015.20
2018-10-02T15:40:32.827Z,95020.28
2018-10-02T15:43:01.644Z,95016.47
2018-10-02T15:45:29.649Z,95016.47
2018-10-02T15:47:57.862Z,95020.71
2018-10-02T15:50:26.199Z,95024.84
2018-10-02T15:52:54.129Z,95022.63
2018-10-02T15:55:22.317Z,95016.97
2018-10-02T15:57:50.399Z,95027.97
2018-10-02T16:00:18.806Z,95030.30
2018-10-02T16:02:47.306Z,95022.96
2018-10-02T16:05:15.254Z,95033.33
2018-10-02T16:07:43.194Z,95027.81
2018-10-02T16:10:11.406Z,95036.71
2018-10-02T16:12:39.335Z,95040.83
2018-10-02T16:15:07.344Z,95043.73
2018-10-02T16:17:35.410Z,95043.69
2018-10-02T16:20:03.593Z,95047.27
2018-10-02T16:22:31.506Z,95053.58
2018-10-02T16:24:59.661Z,95049.66
2018-10-02T16:27:27.792Z,95054.95
2018-10-02T16:29:55.692Z,95061.06
2018-10-02T16:32:23.779Z,95057.76
2018-10-02T16:34:51.869Z,95059.30
2018-10-02T16:37:19.855Z,95063.95
2018-10-02T16:39:49.182Z,95070.14
2018-10-02T16:42:17.989Z,95077.34
2018-10-02T16:44:45.934Z,95075.52
2018-10-02T16:47:14.016Z,95033.95
2018-10-02T16:49:41.875Z,95092.75
2018-10-02T16:52:09.914Z,95102.11
2018-10-02T16:54:37.850Z,95105.30
2018-10-02T16:57:06.097Z,95119.83
2018-10-02T16:59:34.056Z,95118.42
2018-10-02T17:02:01.995Z,95118.78
2018-10-02T17:04:30.143Z,95124.23
2018-10-02T17:06:58.074Z,95130.37
2018-10-02T17:09:26.133Z,95139.97
2018-10-02T17:11:54.307Z,95138.93
2018-10-02T17:14:22.333Z,95138.59
2018-10-02T17:16:50.362Z,95131.44
2018-10-02T17:19:18.449Z,95136.75
2018-10-02T17:21:46.511Z,95146.09
2018-10-02T17:24:14.611Z,95153.68
2018-10-02T17:26:43.933Z,95163.61
2018-10-02T17:29:11.920Z,95161.28
2018-10-02T17:31:39.946Z,95159.94
2018-10-02T17:34:07.914Z,95163.88
2018-10-02T17:36:40.390Z,95163.80
2018-10-02T17:39:10.168Z,95168.70
2018-10-02T17:41:41.608Z,95185.93
2018-10-02T17:44:09.883Z,95193.80
2018-10-02T17:46:37.834Z,95191.16
2018-10-02T17:49:07.198Z,95186.19
2018-10-02T17:51:35.095Z,95203.91
2018-10-02T17:54:03.065Z,95198.16
2018-10-02T17:56:31.026Z,95205.64
2018-10-02T17:58:58.951Z,95216.35
2018-10-02T18:01:27.218Z,95220.85
2018-10-02T18:03:55.177Z,95223.48
2018-10-02T18:06:23.202Z,95228.59
2018-10-02T18:08:51.284Z,95221.59
2018-10-02T18:11:22.961Z,95219.11
2018-10-02T18:13:50.912Z,95229.09
2018-10-02T18:16:18.871Z,95222.58
2018-10-02T18:18:46.875Z,95230.81
2018-10-02T18:21:14.819Z,95236.81
2018-10-02T18:23:42.844Z,95233.17
2018-10-02T18:26:10.869Z,95241.92
2018-10-02T18:28:39.935Z,95242.80
2018-10-02T18:31:08.134Z,95236.03
2018-10-02T18:33:36.189Z,95249.00
2018-10-02T18:36:04.268Z,95247.73
2018-10-02T18:38:32.224Z,95245.06
2018-10-02T18:41:00.266Z,95252.41
2018-10-02T18:43:28.497Z,95264.81
2018-10-02T18:45:56.637Z,95258.10
2018-10-02T18:48:25.464Z,95257.44
2018-10-02T18:50:53.404Z,95257.20
2018-10-02T18:53:21.436Z,95260.19
2018-10-02T18:55:49.542Z,95266.77
2018-10-02T18:58:17.686Z,95264.88
2018-10-02T19:00:45.838Z,95270.55
2018-10-02T19:03:13.966Z,95277.30
2018-10-02T19:05:42.432Z,95281.64
2018-10-02T19:08:10.374Z,95276.87
2018-10-02T19:10:38.528Z,95279.48
2018-10-02T19:13:06.475Z,95293.56
2018-10-02T19:15:40.010Z,95279.29
2018-10-02T19:18:07.991Z,95285.61
2018-10-02T19:20:41.701Z,95291.41
2018-10-02T19:23:09.813Z,95292.66
2018-10-02T19:25:43.265Z,95292.88
2018-10-02T19:28:11.537Z,95299.59
2018-10-02T19:30:45.927Z,95299.56
2018-10-02T19:33:13.895Z,95297.31
2018-10-02T19:35:41.807Z,95315.42
2018-10-02T19:38:15.290Z,95308.66
2018-10-02T19:40:43.342Z,95322.63
2018-10-02T19:43:11.443Z,95334.76
2018-10-02T19:45:44.929Z,95327.91
2018-10-02T19:48:15.852Z,95337.04
2018-10-02T19:50:44.762Z,95330.83
2018-10-02T19:53:12.770Z,95336.87
2018-10-02T19:55:40.728Z,95336.05
2018-10-02T19:58:08.661Z,95336.92
2018-10-02T20:00:36.691Z,95337.32
2018-10-02T20:03:05.216Z,95344.68
2018-10-02T20:05:33.135Z,95337.10
2018-10-02T20:08:01.211Z,95347.99
2018-10-02T20:10:29.230Z,95351.19
2018-10-02T20:12:57.234Z,95362.47
2018-10-02T20:15:25.410Z,95364.66
2018-10-02T20:17:54.537Z,95367.13
2018-10-02T20:20:23.414Z,95370.19
2018-10-02T20:22:52.819Z,95369.14
2018-10-02T20:25:21.803Z,95376.98
2018-10-02T20:27:49.999Z,95382.45
2018-10-02T20:30:18.039Z,95383.30
2018-10-02T20:32:46.148Z,95382.45
2018-10-02T20:35:14.166Z,95375.69
2018-10-02T20:37:42.161Z,95377.86
2018-10-02T20:40:10.470Z,95387.69
2018-10-02T20:42:38.392Z,95387.71
2018-10-02T20:45:06.397Z,95384.63
2018-10-02T20:47:34.402Z,95394.44
2018-10-02T20:50:02.312Z,95399.63
2018-10-02T20:52:30.329Z,95396.70
2018-10-02T20:54:59.200Z,95393.53
2018-10-02T20:57:27.448Z,95403.81
2018-10-02T20:59:55.335Z,95395.82
2018-10-02T21:02:23.248Z,95402.23
2018-10-02T21:04:51.132Z,95405.75
2018-10-02T21:07:19.074Z,95398.13
2018-10-02T21:09:47.033Z,95408.30
2018-10-02T21:12:15.119Z,95411.66
2018-10-02T21:14:43.035Z,95403.27
2018-10-02T21:17:11.048Z,95409.84
2018-10-02T21:19:39.130Z,95412.75
2018-10-02T21:22:07.189Z,95411.00
2018-10-02T21:24:35.441Z,95410.86
2018-10-02T21:27:03.455Z,95414.39
2018-10-02T21:29:31.524Z,95407.13
2018-10-02T21:31:59.503Z,95401.22
2018-10-02T21:34:27.516Z,95400.58
2018-10-02T21:36:55.467Z,95401.51
2018-10-02T21:39:23.563Z,95404.39
2018-10-02T21:41:51.420Z,95402.04
2018-10-02T21:44:19.361Z,95399.80
2018-10-02T21:46:47.382Z,95402.66
2018-10-02T21:49:15.267Z,95397.10
2018-10-02T21:51:43.214Z,95405.79
2018-10-02T21:54:11.226Z,95409.44
2018-10-02T21:56:39.815Z,95402.36
2018-10-02T21:59:07.765Z,95408.81
2018-10-02T22:01:35.698Z,95405.84
2018-10-02T22:04:03.730Z,95411.08
2018-10-02T22:06:31.714Z,95410.71
2018-10-02T22:08:59.686Z,95400.59
2018-10-02T22:11:27.896Z,95401.98
2018-10-02T22:13:55.863Z,95410.51
2018-10-02T22:16:23.832Z,95415.70
2018-10-02T22:18:51.932Z,95415.05
2018-10-02T22:21:21.152Z,95412.08
2018-10-02T22:23:49.762Z,95410.19
2018-10-02T22:26:17.981Z,95406.66
2018-10-02T22:28:45.931Z,95405.37
2018-10-02T22:31:14.048Z,95309.84
2018-10-02T22:33:42.084Z,95413.13
2018-10-02T22:36:10.036Z,95418.70
2018-10-02T22:38:37.987Z,95426.48
2018-10-02T22:41:06.246Z,95430.56
2018-10-02T22:43:34.218Z,95429.98
2018-10-02T22:46:02.140Z,95439.98
2018-10-02T22:48:30.183Z,95435.27
2018-10-02T22:50:58.228Z,95442.61
2018-10-02T22:53:26.144Z,95435.73
2018-10-02T22:55:54.166Z,95435.56
2018-10-02T22:58:22.159Z,95446.42
2018-10-02T23:00:50.101Z,95445.11
2018-10-02T23:03:18.199Z,95439.12
2018-10-02T23:05:46.168Z,95450.59
2018-10-02T23:08:14.134Z,95455.27
2018-10-02T23:10:42.097Z,95455.00
2018-10-02T23:13:10.243Z,95447.30
2018-10-02T23:15:38.192Z,95450.66
2018-10-02T23:18:06.109Z,95451.83
2018-10-02T23:20:35.237Z,95451.44
2018-10-02T23:23:06.343Z,95459.31
2018-10-02T23:25:34.550Z,95461.42
2018-10-02T23:28:02.786Z,95455.38
2018-10-02T23:30:30.869Z,95462.77
2018-10-02T23:32:58.854Z,95471.24
2018-10-02T23:35:27.915Z,95468.53
2018-10-02T23:37:56.026Z,95464.00
2018-10-02T23:40:24.264Z,95466.86
2018-10-02T23:42:52.168Z,95472.47
2018-10-02T23:45:20.678Z,95480.45
2018-10-02T23:47:48.781Z,95473.23
2018-10-02T23:50:16.812Z,95472.74
2018-10-02T23:52:44.952Z,95482.58
2018-10-02T23:55:13.016Z,95475.05
2018-10-02T23:57:41.093Z,95483.99
